Flight Track Log - Related Links

Times and Time Zones

All times are in EDT time to prevent confusion due to time zone crossing. See the UAL4679 flight status page for this flight to view local times or setup timezone preferences in your user account.

Time Position Orientation Groundspeed Altitude Reporting Facility
EDT Latitude Longitude Course Direction KTS MPH feet Rate Location/Type
Sat 01:00:55 PM 40.6244 -74.1997 180° South 214 246 2,300  Level New York Center
Sat 01:01:55 PM 40.5792 -74.2467 218° Southwest 224 258 4,300 1,736 Climbing New York Center
Sat 01:02:56 PM 40.5122 -74.2597 188° South 235 270 5,800 836 Climbing New York Center
Sat 01:03:00 PM 40.2947 -74.1518 194° South  Level FlightAware Approximate
Sat 01:03:57 PM 40.4342 -74.2231 160° South 250 288 6,000  Level New York Center
Sat 01:04:00 PM 40.1909 -74.1864 194° South  Level FlightAware Approximate
Sat 01:04:54 PM 40.3683 -74.1897 159° South 279 321 6,000  Level New York Center
Sat 01:05:00 PM 40.0875 -74.2167 180° South  Level FlightAware Approximate
Sat 01:05:00 PM 40.3291 -74.1645 159° South  Level FlightAware Approximate
Sat 01:06:00 PM 39.9864 -74.2500 180° South  Level FlightAware Approximate
Sat 01:06:56 PM 40.2142 -74.1931 181° South 270 311 9,000  Level New York Center
Sat 01:08:45 PM 40.0869 -74.2275 192° South 274 315 11,200 1,114 Climbing Washington Center
Sat 01:09:43 PM 39.9997 -74.2589 195° South 301 346 12,100 958 Climbing Washington Center
Sat 01:10:44 PM 39.9236 -74.3308 216° Southwest 324 373 13,100 1,131 Climbing Washington Center
Sat 01:11:45 PM 39.8492 -74.3997 215° Southwest 335 386 14,400 1,339 Climbing Washington Center
Sat 01:12:45 PM 39.7814 -74.4817 223° Southwest 342 394 15,800 1,412 Climbing Washington Center
Sat 01:13:44 PM 39.7153 -74.5664 225° Southwest 342 394 17,200 1,210 Climbing Washington Center
Sat 01:14:44 PM 39.6494 -74.6508 225° Southwest 336 387 18,200 966 Climbing Washington Center
Sat 01:15:42 PM 39.5856 -74.7406 227° Southwest 336 387 19,100 857 Climbing Washington Center
Sat 01:16:43 PM 39.5153 -74.8331 225° Southwest 341 392 19,900 787 Climbing Washington Center
Sat 01:17:44 PM 39.4428 -74.9278 225° Southwest 355 409 20,700 787 Climbing Washington Center
Sat 01:18:45 PM 39.3706 -75.0197 225° Southwest 360 414 21,500 793 Climbing Washington Center
Sat 01:19:45 PM 39.2958 -75.1169 225° Southwest 365 420 22,300 800 Climbing Washington Center
Sat 01:20:45 PM 39.2044 -75.1872 211° Southwest 381 438 23,100 864 Climbing Washington Center
Sat 01:21:43 PM 39.1108 -75.2544 209° Southwest 381 438 24,000 864 Climbing Washington Center
Sat 01:22:43 PM 39.0233 -75.3244 212° Southwest 386 444 24,800 793 Climbing Washington Center
Sat 01:23:44 PM 38.9214 -75.4022 211° Southwest 386 444 25,600 787 Climbing Washington Center
Sat 01:24:45 PM 38.8319 -75.4717 211° Southwest 386 444 26,400 807 Climbing Washington Center
Sat 01:25:43 PM 38.7381 -75.5383 209° Southwest 386 444 27,200 807 Climbing Washington Center
Sat 01:26:44 PM 38.6486 -75.6156 214° Southwest 386 444 28,000 793 Climbing Washington Center
Sat 01:27:44 PM 38.5672 -75.6925 216° Southwest 381 438 28,800 793 Climbing Washington Center
Sat 01:28:45 PM 38.4836 -75.7719 217° Southwest 381 438 29,600 793 Climbing Washington Center
Sat 01:29:45 PM 38.4022 -75.8381 212° Southwest 381 438 30,400 814 Climbing Washington Center
Sat 01:30:43 PM 38.3186 -75.9172 217° Southwest 381 438 31,200 814 Climbing Washington Center
Sat 01:31:43 PM 38.2331 -76.0042 219° Southwest 387 445 32,000 793 Climbing Washington Center
Sat 01:32:44 PM 38.1533 -76.0908 221° Southwest 393 452 32,800 793 Climbing Washington Center
Sat 01:33:44 PM 38.0653 -76.1747 217° Southwest 393 452 33,600 595 Climbing Washington Center
Sat 01:34:45 PM 37.9817 -76.2636 220° Southwest 398 458 34,000 202 Climbing Washington Center
Sat 01:35:43 PM 37.8914 -76.3547 219° Southwest 404 465 34,000  Level Washington Center
Sat 01:36:43 PM 37.8072 -76.4592 224° Southwest 416 479 34,000 198 Level Washington Center
Sat 01:37:44 PM 37.7292 -76.5658 227° Southwest 416 479 34,400 639 Climbing Washington Center
Sat 01:38:45 PM 37.6489 -76.6778 228° Southwest 421 484 35,300 800 Climbing Washington Center
Sat 01:39:44 PM 37.5750 -76.7814 228° Southwest 415 478 36,000 353 Climbing Washington Center
Sat 01:40:44 PM 37.4906 -76.8928 226° Southwest 430 495 36,000  Level Washington Center
Sat 01:41:45 PM 37.3994 -77.0114 226° Southwest 441 507 36,000  Level Washington Center
Sat 01:42:43 PM 37.3314 -77.1172 231° Southwest 441 507 36,000  Level Washington Center
Sat 01:43:44 PM 37.2444 -77.2303 226° Southwest 448 516 36,000  Level Washington Center
Sat 01:44:44 PM 37.1389 -77.3089 211° Southwest 448 516 36,000  Level Washington Center
Sat 01:45:45 PM 37.0272 -77.3844 208° Southwest 454 522 36,000  Level Washington Center
Sat 01:46:42 PM 36.9133 -77.4647 209° Southwest 462 532 36,000  Level Washington Center
Sat 01:47:43 PM 36.7994 -77.5400 208° Southwest 469 540 36,000  Level Washington Center
Sat 01:48:43 PM 36.6878 -77.6147 208° Southwest 469 540 36,000  Level Washington Center
Sat 01:49:44 PM 36.5736 -77.6919 209° Southwest 469 540 36,000  Level Washington Center
Sat 01:50:45 PM 36.4597 -77.7692 209° Southwest 464 534 36,000  Level Washington Center
Sat 01:51:43 PM 36.3519 -77.8458 210° Southwest 464 534 36,000  Level Washington Center
Sat 01:52:43 PM 36.2378 -77.9175 207° Southwest 464 534 36,000  Level Washington Center
Sat 01:53:44 PM 36.1236 -77.9939 208° Southwest 469 540 36,000  Level Washington Center
Sat 01:54:44 PM 36.0136 -78.0675 208° Southwest 462 532 36,000  Level Washington Center
Sat 01:55:45 PM 35.8994 -78.1433 208° Southwest 462 532 36,000  Level Washington Center
Sat 01:56:45 PM 35.7850 -78.2164 207° Southwest 462 532 36,000  Level Washington Center
Sat 01:57:42 PM 35.6731 -78.2894 208° Southwest 462 532 36,000  Level Washington Center
Sat 01:58:43 PM 35.5608 -78.3572 206° Southwest 467 537 36,000  Level Washington Center
Sat 01:59:44 PM 35.4336 -78.4444 209° Southwest 477 549 36,000  Level Washington Center
Sat 02:00:44 PM 35.3297 -78.5097 207° Southwest 477 549 36,000  Level Washington Center
Sat 02:01:44 PM 35.2172 -78.5844 208° Southwest 472 543 36,000  Level Washington Center
Sat 02:02:45 PM 35.1028 -78.6589 208° Southwest 466 536 36,000  Level Washington Center
Sat 02:04:42 PM 34.8656 -78.8092 207° Southwest 456 525 36,000  Level Jacksonville Center
Sat 02:05:42 PM 34.7489 -78.8803 207° Southwest 456 525 36,000  Level Jacksonville Center
Sat 02:06:42 PM 34.6367 -78.9561 209° Southwest 461 531 36,000  Level Jacksonville Center
Sat 02:07:42 PM 34.5200 -79.0269 207° Southwest 461 531 36,000  Level Jacksonville Center
Sat 02:08:42 PM 34.4097 -79.1075 211° Southwest 461 531 36,000  Level Jacksonville Center
Sat 02:09:42 PM 34.2950 -79.1803 208° Southwest 466 536 36,000  Level Jacksonville Center
Sat 02:10:42 PM 34.1847 -79.2603 211° Southwest 466 536 36,000  Level Jacksonville Center
Sat 02:11:42 PM 34.0722 -79.3403 211° Southwest 471 542 36,000  Level Jacksonville Center
Sat 02:12:42 PM 33.9617 -79.4197 211° Southwest 471 542 36,000  Level Jacksonville Center
Sat 02:13:42 PM 33.8678 -79.4886 211° Southwest 464 534 36,000  Level Jacksonville Center
Sat 02:14:42 PM 33.7569 -79.5653 210° Southwest 459 528 36,000  Level Jacksonville Center
Sat 02:15:42 PM 33.6464 -79.6442 211° Southwest 459 528 36,000 -350 Level Jacksonville Center
Sat 02:16:42 PM 33.5336 -79.7256 211° Southwest 459 528 35,300 -900 Descending Jacksonville Center
Sat 02:17:42 PM 33.4272 -79.8042 212° Southwest 459 528 34,200 -1,050 Descending Jacksonville Center
Sat 02:18:42 PM 33.3164 -79.8800 210° Southwest 464 534 33,200 -1,050 Descending Jacksonville Center
Sat 02:19:42 PM 33.2119 -79.9731 217° Southwest 464 534 32,100 -1,050 Descending Jacksonville Center
Sat 02:20:42 PM 33.1119 -80.0728 220° Southwest 469 540 31,100 -1,000 Descending Jacksonville Center
Sat 02:21:42 PM 33.0011 -80.1581 213° Southwest 476 548 30,100 -550 Descending Jacksonville Center
Sat 02:22:42 PM 32.8858 -80.2308 208° Southwest 470 541 30,000 -50 Descending Jacksonville Center
Sat 02:23:42 PM 32.7789 -80.3058 211° Southwest 458 527 30,000  Level Jacksonville Center
Sat 02:24:42 PM 32.6719 -80.3778 210° Southwest 458 527 30,000  Level Jacksonville Center
Sat 02:25:42 PM 32.5583 -80.4525 209° Southwest 458 527 30,000  Level Jacksonville Center
Sat 02:26:42 PM 32.4389 -80.5344 210° Southwest 453 521 30,000 -300 Level Jacksonville Center
Sat 02:27:42 PM 32.3275 -80.6086 209° Southwest 458 527 29,400 -750 Descending Jacksonville Center
Sat 02:28:42 PM 32.2225 -80.6922 214° Southwest 451 519 28,500 -900 Descending Jacksonville Center
Sat 02:29:42 PM 32.1319 -80.7656 214° Southwest 450 518 27,600 -950 Descending Jacksonville Center
Sat 02:30:42 PM 32.0167 -80.8614 215° Southwest 462 532 26,600 -950 Descending Jacksonville Center
Sat 02:31:42 PM 31.9053 -80.9519 215° Southwest 476 548 25,700 -900 Descending Jacksonville Center
Sat 02:32:42 PM 31.8106 -81.0322 216° Southwest 476 548 24,800 -1,050 Descending Jacksonville Center
Sat 02:33:42 PM 31.6992 -81.1297 217° Southwest 460 529 23,600 -1,400 Descending Jacksonville Center
Sat 02:34:42 PM 31.6189 -81.2117 221° Southwest 437 503 22,000 -1,850 Descending Jacksonville Center
Sat 02:35:42 PM 31.5261 -81.3133 223° Southwest 418 481 19,900 -2,100 Descending Jacksonville Center
Sat 02:36:42 PM 31.4436 -81.3997 222° Southwest 406 467 17,800 -2,400 Descending Jacksonville Center
Sat 02:37:42 PM 31.3736 -81.4764 223° Southwest 399 459 15,100 -3,095 Descending Jacksonville Center
Sat 02:38:17 PM 31.3156 -81.5283 217° Southwest 374 430 12,900 -1,700 Descending Jacksonville Center
Sat 02:40:42 PM 31.1292 -81.6694 213° Southwest 323 372 10,000 -866 Descending Jacksonville Center
Sat 02:41:38 PM 31.0628 -81.7139 210° Southwest 274 315 10,000  Level Jacksonville Center
Sat 02:42:39 PM 30.9964 -81.7558 208° Southwest 275 316 10,000 -443 Level Jacksonville Center
Sat 02:43:40 PM 30.9258 -81.7956 206° Southwest 281 323 9,100 -1,672 Descending Jacksonville Center
Sat 02:44:41 PM 30.8742 -81.8592 227° Southwest 266 306 6,600 -2,410 Descending Jacksonville Center
Sat 02:45:42 PM 30.8267 -81.9250 230° Southwest 262 302 4,200 -1,835 Descending Jacksonville Center
Sat 02:46:42 PM 30.7853 -81.9931 235° Southwest 266 306 2,900 -1,100 Descending Jacksonville Center
Sat 02:47:42 PM 30.7419 -82.0492 228° Southwest 247 284 2,000 -443 Descending Jacksonville Center
Sat 02:48:44 PM 30.6811 -82.0181 156° South 238 274 2,000  Level Jacksonville Center
Sat 02:49:51 PM 30.6139 -81.9778 153° Southeast 231 266 2,000  Level Jacksonville Center
Sat 02:50:52 PM 30.5656 -81.9250 137° Southeast 248 285 2,000  Level Jacksonville Center
Sat 02:51:53 PM 30.5172 -81.8703 136° Southeast 249 287 2,000  Level Jacksonville Center
Sat 02:52:54 PM 30.4625 -81.8419 156° South 212 244 2,000  Level Jacksonville Center
Sat 02:53:55 PM 30.4600 -81.7767 93° East 211 243 2,000 43 Level Jacksonville Center
Sat 02:55:14 PM 30.4081 -81.7942 196° South 204 235 2,100 50 Climbing Jacksonville Center
Sat 02:55:56 PM 30.3978 -81.8403 256° West 212 244 2,100  Level Jacksonville Center
Sat 02:56:51 PM 30.4169 -81.8833 297° West 204 235 2,100  Level Jacksonville Center
Sat 02:57:52 PM 30.4394 -81.8228 67° East 228 262 2,100  Level Jacksonville Center
Sat 02:58:53 PM 30.4431 -81.7506 87° East 230 265 2,100 -173 Level Jacksonville Center
Sat 03:00:11 PM 30.4153 -81.6736 113° Southeast 199 229 1,700 -496 Descending Jacksonville Center
Sat 03:01:06 PM 30.4506 -81.6539 26° Northeast 166 191 1,000 -764 Descending Jacksonville Center

Login

Don't have an account? Register now (free) for customized features, flight alerts, and more!